createdAt,value
2022-12-19T00:01:55.848Z,14.18
2022-12-19T00:04:00.869Z,16.80
2022-12-19T00:06:07.556Z,15.45
2022-12-19T00:08:17.635Z,15.18
2022-12-19T00:10:20.669Z,16.23
2022-12-19T00:12:26.517Z,14.85
2022-12-19T00:14:29.155Z,14.32
2022-12-19T00:16:33.394Z,15.50
2022-12-19T00:18:40.095Z,15.35
2022-12-19T00:20:42.547Z,14.02
2022-12-19T00:22:49.795Z,16.45
2022-12-19T00:24:53.591Z,16.25
2022-12-19T00:26:56.228Z,15.50
2022-12-19T00:29:00.756Z,14.88
2022-12-19T00:31:04.699Z,15.48
2022-12-19T00:33:09.635Z,16.13
2022-12-19T00:35:14.037Z,15.68
2022-12-19T00:37:17.628Z,16.33
2022-12-19T00:39:22.846Z,15.57
2022-12-19T00:41:27.469Z,16.42
2022-12-19T00:43:34.550Z,12.90
2022-12-19T00:45:39.087Z,15.80
2022-12-19T00:47:41.616Z,16.25
2022-12-19T00:49:45.857Z,15.93
2022-12-19T00:51:52.663Z,15.43
2022-12-19T00:53:56.331Z,14.35
2022-12-19T00:56:13.623Z,16.88
2022-12-19T00:58:22.575Z,14.50
2022-12-19T01:00:26.032Z,15.63
2022-12-19T01:02:34.872Z,14.40
2022-12-19T01:04:41.958Z,14.85
2022-12-19T01:06:49.829Z,15.02
2022-12-19T01:08:52.904Z,15.10
2022-12-19T01:10:57.648Z,15.68
2022-12-19T01:13:02.898Z,14.60
2022-12-19T01:15:06.460Z,15.63
2022-12-19T01:17:10.674Z,14.50
2022-12-19T01:19:13.351Z,15.02
2022-12-19T01:21:19.096Z,15.25
2022-12-19T01:23:21.607Z,15.75
2022-12-19T01:25:24.206Z,15.90
2022-12-19T01:27:26.639Z,15.57
2022-12-19T01:29:32.546Z,16.05
2022-12-19T01:31:37.345Z,16.13
2022-12-19T01:33:42.930Z,16.00
2022-12-19T01:35:50.213Z,15.90
2022-12-19T01:37:56.102Z,14.75
2022-12-19T01:40:12.801Z,14.32
2022-12-19T01:42:17.709Z,16.17
2022-12-19T01:44:26.390Z,16.02
2022-12-19T01:46:35.781Z,16.05
2022-12-19T01:48:42.951Z,14.50
2022-12-19T01:51:01.733Z,15.63
2022-12-19T01:53:08.733Z,14.38
2022-12-19T01:55:12.502Z,15.80
2022-12-19T01:57:18.244Z,14.82
2022-12-19T01:59:28.320Z,16.95
2022-12-19T02:01:35.465Z,14.70
2022-12-19T02:03:41.640Z,16.58
2022-12-19T02:05:48.378Z,15.88
2022-12-19T02:07:52.439Z,15.73
2022-12-19T02:09:59.740Z,16.02
2022-12-19T02:12:10.630Z,15.20
2022-12-19T02:14:13.610Z,15.63
2022-12-19T02:16:30.130Z,14.88
2022-12-19T02:18:48.251Z,15.05
2022-12-19T02:21:27.657Z,15.80
2022-12-19T02:24:09.276Z,15.00
2022-12-19T02:26:31.437Z,14.57
2022-12-19T02:28:52.295Z,15.13
2022-12-19T02:31:11.402Z,14.40
2022-12-19T02:33:28.790Z,16.88
2022-12-19T02:35:40.696Z,15.27
2022-12-19T02:37:48.680Z,16.92
2022-12-19T02:39:58.986Z,15.40
2022-12-19T02:42:05.745Z,14.93
2022-12-19T02:44:11.118Z,18.13
2022-12-19T02:46:18.784Z,15.90
2022-12-19T02:48:22.412Z,16.45
2022-12-19T02:50:25.289Z,16.92
2022-12-19T02:52:44.881Z,16.05
2022-12-19T02:54:49.913Z,20.38
2022-12-19T02:56:59.477Z,17.67
2022-12-19T02:59:34.977Z,18.55
2022-12-19T03:01:48.898Z,17.42
2022-12-19T03:04:04.527Z,18.92
2022-12-19T03:06:18.993Z,17.90
2022-12-19T03:08:26.411Z,13.60
2022-12-19T03:10:36.413Z,18.08
2022-12-19T03:12:44.877Z,17.48
2022-12-19T03:14:51.035Z,19.33
2022-12-19T03:17:02.400Z,17.02
2022-12-19T03:19:08.708Z,18.65
2022-12-19T03:21:15.797Z,18.33
2022-12-19T03:23:21.031Z,19.05
2022-12-19T03:25:25.793Z,16.35
2022-12-19T03:27:31.144Z,17.77
2022-12-19T03:29:41.040Z,17.33
2022-12-19T03:31:46.582Z,17.05
2022-12-19T03:33:57.418Z,19.45
2022-12-19T03:36:05.057Z,20.27
2022-12-19T03:38:08.866Z,18.13
2022-12-19T03:40:15.751Z,19.67
2022-12-19T03:42:42.440Z,18.10
2022-12-19T03:44:45.447Z,24.15
2022-12-19T03:46:55.185Z,18.67
2022-12-19T03:49:00.444Z,18.95
2022-12-19T03:51:10.701Z,18.33
2022-12-19T03:53:31.884Z,20.13
2022-12-19T03:55:40.513Z,21.20
2022-12-19T03:57:51.478Z,20.13
2022-12-19T04:00:00.224Z,20.60
2022-12-19T04:02:04.296Z,19.67
2022-12-19T04:04:13.781Z,20.95
2022-12-19T04:06:16.996Z,21.77
2022-12-19T04:08:21.347Z,22.50
2022-12-19T04:10:27.893Z,22.17
2022-12-19T04:12:34.247Z,22.80
2022-12-19T04:14:38.716Z,23.50
2022-12-19T04:16:47.739Z,20.80
2022-12-19T04:18:56.022Z,22.70
2022-12-19T04:21:05.827Z,21.08
2022-12-19T04:23:14.104Z,21.23
2022-12-19T04:25:26.298Z,22.17
2022-12-19T04:29:40.256Z,20.83
2022-12-19T04:31:44.805Z,22.45
2022-12-19T04:33:47.250Z,23.55
2022-12-19T04:35:50.212Z,22.30
2022-12-19T04:37:55.717Z,22.92
2022-12-19T04:39:59.911Z,23.35
2022-12-19T04:42:04.435Z,22.00
2022-12-19T04:44:08.032Z,22.08
2022-12-19T04:46:10.686Z,23.05
2022-12-19T04:48:14.581Z,24.55
2022-12-19T04:50:18.713Z,21.45
2022-12-19T04:52:25.925Z,24.98
2022-12-19T04:54:32.231Z,22.35
2022-12-19T04:56:34.927Z,21.98
2022-12-19T04:58:40.622Z,22.40
2022-12-19T05:00:43.149Z,22.42
2022-12-19T05:02:46.377Z,23.15
2022-12-19T05:04:49.935Z,22.50
2022-12-19T05:06:52.660Z,24.58
2022-12-19T05:08:55.684Z,23.40
2022-12-19T05:11:03.532Z,22.55
2022-12-19T05:13:13.642Z,25.92
2022-12-19T05:15:17.287Z,25.48
2022-12-19T05:17:20.018Z,24.00
2022-12-19T05:19:22.821Z,24.80
2022-12-19T05:21:25.471Z,22.08
2022-12-19T05:23:28.483Z,24.08
2022-12-19T05:25:31.046Z,25.13
2022-12-19T05:27:40.146Z,24.33
2022-12-19T05:29:42.646Z,22.13
2022-12-19T05:31:45.622Z,25.38
2022-12-19T05:33:49.356Z,30.13
2022-12-19T05:35:51.968Z,31.67
2022-12-19T05:37:54.621Z,22.38
2022-12-19T05:39:57.361Z,44.13
2022-12-19T05:41:59.794Z,21.77
2022-12-19T05:44:09.976Z,24.02
2022-12-19T05:46:13.781Z,23.80
2022-12-19T05:48:16.732Z,22.42
2022-12-19T05:50:19.403Z,22.73
2022-12-19T05:52:28.905Z,23.83
2022-12-19T05:54:31.586Z,22.98
2022-12-19T05:56:34.089Z,22.20
2022-12-19T05:58:36.981Z,24.55
2022-12-19T06:00:42.814Z,23.20
2022-12-19T06:02:46.239Z,21.08
2022-12-19T06:04:48.779Z,25.65
2022-12-19T06:06:51.383Z,23.10
2022-12-19T06:08:54.713Z,24.23
2022-12-19T06:11:02.396Z,33.20
2022-12-19T06:13:05.782Z,21.77
2022-12-19T06:15:09.501Z,20.95
2022-12-19T06:17:14.762Z,20.75
2022-12-19T06:19:21.402Z,19.30
2022-12-19T06:21:23.961Z,18.73
2022-12-19T06:23:26.787Z,20.10
2022-12-19T06:25:29.883Z,19.70
2022-12-19T06:27:33.304Z,19.52
2022-12-19T06:29:36.041Z,18.37
2022-12-19T06:31:38.560Z,21.50
2022-12-19T06:33:46.329Z,19.35
2022-12-19T06:35:57.815Z,18.95
2022-12-19T06:38:01.191Z,17.92
2022-12-19T06:40:04.643Z,21.35
2022-12-19T06:42:23.691Z,20.00
2022-12-19T06:44:26.429Z,19.50
2022-12-19T06:46:30.029Z,19.85
2022-12-19T06:48:49.106Z,17.98
2022-12-19T06:50:51.775Z,19.48
2022-12-19T06:52:54.461Z,18.83
2022-12-19T06:54:57.481Z,21.40
2022-12-19T06:57:00.113Z,25.02
2022-12-19T06:59:11.420Z,20.05
2022-12-19T07:01:31.847Z,18.40
2022-12-19T07:03:38.553Z,18.35
2022-12-19T07:05:43.873Z,19.65
2022-12-19T07:07:50.964Z,21.35
2022-12-19T07:09:54.679Z,17.33
2022-12-19T07:14:03.601Z,17.52
2022-12-19T07:16:07.198Z,18.60
2022-12-19T07:18:10.785Z,16.92
2022-12-19T07:20:14.630Z,25.23
2022-12-19T07:22:20.092Z,19.20
2022-12-19T07:24:22.884Z,17.75
2022-12-19T07:26:25.621Z,19.02
2022-12-19T07:28:28.444Z,19.50
2022-12-19T07:30:31.120Z,17.33
2022-12-19T07:32:33.994Z,19.55
2022-12-19T07:34:39.026Z,23.52
2022-12-19T07:36:42.000Z,20.77
2022-12-19T07:38:49.901Z,20.38
2022-12-19T07:40:52.594Z,20.25
2022-12-19T07:42:55.312Z,26.83
2022-12-19T07:45:01.714Z,17.85
2022-12-19T07:47:04.599Z,18.73
2022-12-19T07:49:21.110Z,18.55
2022-12-19T07:51:25.391Z,17.83
2022-12-19T07:53:29.066Z,18.73
2022-12-19T07:55:35.001Z,17.63
2022-12-19T07:57:37.855Z,17.35
2022-12-19T07:59:40.345Z,17.60
2022-12-19T08:01:43.389Z,17.60
2022-12-19T08:03:48.688Z,17.83
2022-12-19T08:05:51.494Z,25.02
2022-12-19T08:08:02.860Z,17.08
2022-12-19T08:10:07.101Z,19.63
2022-12-19T08:12:17.885Z,20.05
2022-12-19T08:14:22.887Z,18.17
2022-12-19T08:16:28.070Z,16.93
2022-12-19T08:18:30.513Z,17.15
2022-12-19T08:20:33.164Z,19.08
2022-12-19T08:22:35.691Z,22.88
2022-12-19T08:24:38.161Z,19.27
2022-12-19T08:26:47.420Z,18.75
2022-12-19T08:28:54.641Z,17.77
2022-12-19T08:30:58.560Z,18.05
2022-12-19T08:33:01.135Z,18.67
2022-12-19T08:35:03.879Z,17.60
2022-12-19T08:37:06.449Z,21.02
2022-12-19T08:39:28.288Z,29.25
2022-12-19T08:41:30.834Z,19.08
2022-12-19T08:43:36.728Z,24.35
2022-12-19T08:45:45.917Z,19.33
2022-12-19T08:47:48.635Z,20.95
2022-12-19T08:49:51.268Z,18.75
2022-12-19T08:51:54.079Z,21.73
2022-12-19T08:54:00.930Z,29.33
2022-12-19T08:56:14.808Z,20.48
2022-12-19T08:58:17.692Z,19.73
2022-12-19T09:00:20.994Z,21.42
2022-12-19T09:02:33.325Z,29.90
2022-12-19T09:05:52.031Z,17.48
2022-12-19T09:06:59.471Z,19.00
2022-12-19T09:09:02.796Z,18.88
2022-12-19T09:11:20.210Z,35.90
2022-12-19T09:13:25.125Z,19.98
2022-12-19T09:15:28.698Z,19.52
2022-12-19T09:17:33.978Z,19.52
2022-12-19T09:19:37.141Z,19.92
2022-12-19T09:21:44.683Z,20.52
2022-12-19T09:23:49.888Z,19.40
2022-12-19T09:25:52.649Z,19.10
2022-12-19T09:30:21.241Z,25.52
2022-12-19T09:32:24.196Z,18.77
2022-12-19T09:34:37.425Z,18.45
2022-12-19T09:38:44.622Z,19.25
2022-12-19T09:41:03.200Z,22.20
2022-12-19T09:43:12.030Z,19.23
2022-12-19T09:45:32.985Z,20.33
2022-12-19T09:47:39.403Z,26.00
2022-12-19T09:49:46.210Z,19.35
2022-12-19T09:51:57.452Z,18.60
2022-12-19T09:54:06.224Z,19.70
2022-12-19T09:56:15.411Z,19.33
2022-12-19T09:58:30.975Z,19.77
2022-12-19T10:00:37.100Z,19.38
2022-12-19T10:02:46.224Z,20.85
2022-12-19T10:05:01.326Z,19.83
2022-12-19T10:07:46.840Z,25.23
2022-12-19T10:12:34.466Z,19.77
2022-12-19T10:12:44.271Z,20.92
2022-12-19T10:15:01.650Z,20.92
2022-12-19T10:17:25.047Z,26.20
2022-12-19T10:19:41.315Z,29.02
2022-12-19T10:22:17.781Z,20.50
2022-12-19T10:24:39.019Z,30.70
2022-12-19T10:26:51.373Z,26.20
2022-12-19T10:29:11.027Z,19.48
2022-12-19T10:31:22.823Z,18.73
2022-12-19T10:33:32.745Z,19.83
2022-12-19T10:35:42.573Z,18.30
2022-12-19T10:37:52.707Z,37.70
2022-12-19T10:40:07.355Z,21.50
2022-12-19T10:42:19.750Z,18.38
2022-12-19T10:44:25.582Z,18.80
2022-12-19T10:46:40.605Z,19.65
2022-12-19T10:48:43.530Z,18.67
2022-12-19T10:50:48.568Z,21.95
2022-12-19T10:52:57.104Z,16.63
2022-12-19T10:55:03.671Z,18.60
2022-12-19T10:57:23.154Z,19.20
2022-12-19T10:59:25.825Z,17.63
2022-12-19T11:01:29.765Z,18.88
2022-12-19T11:03:34.287Z,19.13
2022-12-19T11:05:43.677Z,31.08
2022-12-19T11:08:04.353Z,19.33
2022-12-19T11:12:32.331Z,18.38
2022-12-19T11:16:48.500Z,18.73
2022-12-19T11:19:37.116Z,18.35
2022-12-19T11:27:34.368Z,17.15
2022-12-19T11:29:25.646Z,16.67
2022-12-19T11:29:55.169Z,17.77
2022-12-19T11:30:06.172Z,22.77
2022-12-19T11:30:48.382Z,18.50
2022-12-19T11:33:04.093Z,18.73
2022-12-19T11:35:21.656Z,16.73
2022-12-19T11:37:36.826Z,21.70
2022-12-19T11:39:44.948Z,16.35
2022-12-19T11:41:55.727Z,32.72
2022-12-19T11:44:05.020Z,17.80
2022-12-19T11:46:21.415Z,55.25
2022-12-19T11:48:36.494Z,17.00
2022-12-19T11:50:50.795Z,16.60
2022-12-19T11:53:14.872Z,18.05
2022-12-19T11:55:25.762Z,48.33
2022-12-19T11:57:31.018Z,17.08
2022-12-19T11:59:36.626Z,19.17
2022-12-19T12:01:57.593Z,43.03
2022-12-19T12:04:38.977Z,16.23
2022-12-19T12:06:49.118Z,15.90
2022-12-19T12:11:18.228Z,15.95
2022-12-19T12:17:47.114Z,16.77
2022-12-19T12:23:38.656Z,17.23
2022-12-19T12:30:09.156Z,16.73
2022-12-19T12:31:01.729Z,15.85
2022-12-19T12:31:05.337Z,15.30
2022-12-19T12:31:50.448Z,15.55
2022-12-19T12:31:57.404Z,16.80
2022-12-19T12:35:13.666Z,15.75
2022-12-19T12:35:38.190Z,16.45
2022-12-19T12:38:25.562Z,14.57
2022-12-19T12:40:57.871Z,15.75
2022-12-19T12:43:11.835Z,16.20
2022-12-19T12:45:23.627Z,13.50
2022-12-19T12:47:30.319Z,15.40
2022-12-19T12:49:38.279Z,31.00
2022-12-19T12:51:41.843Z,14.80
2022-12-19T12:53:46.974Z,14.60
2022-12-19T12:55:54.792Z,15.02
2022-12-19T12:58:00.560Z,15.98
2022-12-19T13:00:28.408Z,16.08
2022-12-19T13:02:36.021Z,25.45
2022-12-19T13:04:45.235Z,15.48
2022-12-19T13:07:22.014Z,20.33
2022-12-19T13:09:27.764Z,15.73
2022-12-19T13:12:00.312Z,15.25
2022-12-19T13:14:29.151Z,14.30
2022-12-19T13:16:54.093Z,15.50
2022-12-19T13:19:04.749Z,14.90
2022-12-19T13:21:10.873Z,14.32
2022-12-19T13:23:33.994Z,14.85
2022-12-19T13:25:52.516Z,30.45
2022-12-19T13:27:57.798Z,14.18
2022-12-19T13:30:21.770Z,16.00
2022-12-19T13:32:32.723Z,13.05
2022-12-19T13:34:57.485Z,12.55
2022-12-19T13:39:50.928Z,13.68
2022-12-19T13:40:30.618Z,12.45
2022-12-19T13:43:09.761Z,17.73
2022-12-19T13:45:24.092Z,20.58
2022-12-19T13:47:32.783Z,12.95
2022-12-19T13:49:35.761Z,15.57
2022-12-19T13:51:47.188Z,15.60
2022-12-19T13:53:59.251Z,14.43
2022-12-19T13:56:05.215Z,15.07
2022-12-19T13:58:28.438Z,16.25
2022-12-19T14:00:40.622Z,15.30
2022-12-19T14:02:50.978Z,14.68
2022-12-19T14:05:01.795Z,13.88
2022-12-19T14:07:34.804Z,16.42
2022-12-19T14:11:28.349Z,15.15
2022-12-19T14:13:43.457Z,16.75
2022-12-19T14:15:18.273Z,16.00
2022-12-19T14:17:24.623Z,15.73
2022-12-19T14:19:31.015Z,15.40
2022-12-19T14:22:11.010Z,16.00
2022-12-19T14:24:14.721Z,15.63
2022-12-19T14:28:17.936Z,17.35
2022-12-19T14:28:54.945Z,15.27
2022-12-19T14:31:00.355Z,16.65
2022-12-19T14:33:47.187Z,15.18
2022-12-19T14:36:10.526Z,15.77
2022-12-19T14:39:27.356Z,15.07
2022-12-19T14:41:08.074Z,15.85
2022-12-19T14:43:59.202Z,14.60
2022-12-19T14:52:34.302Z,15.13
2022-12-19T14:53:52.603Z,14.65
2022-12-19T14:54:13.316Z,15.82
2022-12-19T14:55:13.394Z,13.60
2022-12-19T14:56:59.126Z,13.45
2022-12-19T14:58:57.695Z,13.48
2022-12-19T15:01:09.888Z,13.65
2022-12-19T15:03:23.389Z,13.13
2022-12-19T15:05:28.216Z,13.77
2022-12-19T15:07:34.654Z,14.30
2022-12-19T15:11:02.550Z,11.98
2022-12-19T15:14:47.322Z,13.10
2022-12-19T15:15:03.546Z,12.77
2022-12-19T15:17:21.547Z,11.88
2022-12-19T15:19:25.981Z,11.93
2022-12-19T15:21:32.106Z,12.38
2022-12-19T15:23:39.588Z,14.35
2022-12-19T15:26:03.485Z,13.77
2022-12-19T15:28:14.142Z,12.40
2022-12-19T15:30:19.404Z,10.82
2022-12-19T15:32:22.317Z,12.70
2022-12-19T15:34:36.272Z,12.60
2022-12-19T15:36:44.328Z,11.80
2022-12-19T15:38:49.374Z,12.98
2022-12-19T15:40:51.911Z,12.43
2022-12-19T15:42:57.726Z,12.93
2022-12-19T15:45:01.189Z,11.70
2022-12-19T15:47:06.434Z,12.50
2022-12-19T15:49:13.965Z,10.75
2022-12-19T15:51:16.962Z,10.57
2022-12-19T15:53:32.751Z,11.45
2022-12-19T15:55:56.710Z,9.57
2022-12-19T15:58:01.745Z,10.52
2022-12-19T16:00:07.895Z,9.88
2022-12-19T16:02:19.512Z,10.88
2022-12-19T16:04:23.723Z,10.27
2022-12-19T16:06:26.509Z,10.95
2022-12-19T16:08:29.245Z,10.45
2022-12-19T16:10:31.827Z,12.80
2022-12-19T16:12:40.565Z,10.93
2022-12-19T16:14:43.587Z,12.52
2022-12-19T16:16:49.363Z,11.05
2022-12-19T16:18:51.829Z,13.43
2022-12-19T16:20:54.342Z,15.73
2022-12-19T16:22:57.040Z,12.35
2022-12-19T16:25:03.437Z,11.90
2022-12-19T16:27:07.912Z,17.67
2022-12-19T16:29:19.332Z,12.90
2022-12-19T16:31:25.483Z,11.95
2022-12-19T16:33:29.737Z,11.48
2022-12-19T16:36:03.024Z,14.88
2022-12-19T16:37:55.314Z,11.98
2022-12-19T16:39:57.976Z,13.10
2022-12-19T16:42:01.024Z,12.57
2022-12-19T16:44:04.375Z,11.45
2022-12-19T16:46:16.546Z,17.77
2022-12-19T16:48:21.642Z,12.90
2022-12-19T16:50:26.280Z,15.68
2022-12-19T16:52:38.960Z,16.58
2022-12-19T16:54:45.163Z,11.25
2022-12-19T16:56:52.369Z,12.18
2022-12-19T16:58:56.470Z,11.80
2022-12-19T17:00:59.031Z,13.52
2022-12-19T17:03:09.318Z,11.63
2022-12-19T17:05:24.054Z,13.45
2022-12-19T17:07:28.192Z,11.23
2022-12-19T17:09:36.690Z,15.35
2022-12-19T17:11:39.750Z,23.05
2022-12-19T17:13:42.631Z,11.13
2022-12-19T17:15:49.724Z,12.75
2022-12-19T17:17:58.048Z,14.77
2022-12-19T17:20:03.216Z,14.98
2022-12-19T17:22:11.862Z,11.80
2022-12-19T17:24:15.741Z,10.93
2022-12-19T17:26:21.764Z,11.68
2022-12-19T17:28:24.294Z,11.15
2022-12-19T17:30:26.968Z,10.57
2022-12-19T17:32:29.859Z,11.32
2022-12-19T17:34:33.445Z,10.63
2022-12-19T17:36:38.593Z,11.15
2022-12-19T17:38:41.312Z,10.60
2022-12-19T17:40:44.066Z,10.38
2022-12-19T17:42:49.534Z,10.55
2022-12-19T17:44:56.152Z,11.95
2022-12-19T17:46:59.127Z,14.02
2022-12-19T17:49:07.850Z,13.13
2022-12-19T17:51:12.803Z,10.23
2022-12-19T17:53:19.959Z,9.48
2022-12-19T17:55:24.466Z,10.40
2022-12-19T17:57:32.257Z,9.65
2022-12-19T17:59:34.869Z,9.50
2022-12-19T18:01:39.194Z,10.40
2022-12-19T18:03:43.811Z,10.00
2022-12-19T18:05:46.551Z,9.25
2022-12-19T18:07:50.446Z,9.32
2022-12-19T18:09:55.509Z,8.65
2022-12-19T18:11:57.924Z,8.82
2022-12-19T18:14:00.404Z,9.45
2022-12-19T18:16:03.929Z,11.65
2022-12-19T18:18:13.464Z,9.43
2022-12-19T18:20:23.735Z,8.57
2022-12-19T18:22:29.364Z,9.07
2022-12-19T18:24:31.973Z,8.57
2022-12-19T18:26:39.977Z,8.53
2022-12-19T18:28:43.243Z,8.50
2022-12-19T18:30:47.147Z,9.18
2022-12-19T18:32:53.679Z,8.63
2022-12-19T18:34:56.896Z,8.32
2022-12-19T18:36:59.645Z,8.45
2022-12-19T18:39:02.339Z,8.50
2022-12-19T18:41:11.081Z,8.57
2022-12-19T18:43:19.986Z,9.68
2022-12-19T18:45:26.161Z,8.23
2022-12-19T18:47:28.670Z,60.60
2022-12-19T18:49:34.741Z,10.23
2022-12-19T18:51:37.181Z,8.90
2022-12-19T18:53:39.769Z,9.10
2022-12-19T18:55:42.489Z,8.75
2022-12-19T18:57:46.587Z,8.38
2022-12-19T18:59:51.625Z,8.43
2022-12-19T19:01:55.958Z,14.18
2022-12-19T19:06:03.814Z,8.05
2022-12-19T19:08:15.241Z,8.27
2022-12-19T19:10:20.647Z,10.73
2022-12-19T19:12:30.296Z,8.23
2022-12-19T19:14:32.803Z,8.15
2022-12-19T19:16:38.396Z,8.70
2022-12-19T19:18:43.123Z,7.50
2022-12-19T19:20:47.815Z,12.75
2022-12-19T19:22:52.876Z,8.90
2022-12-19T19:24:55.421Z,14.15
2022-12-19T19:27:00.687Z,9.25
2022-12-19T19:29:03.201Z,8.93
2022-12-19T19:31:09.227Z,8.40
2022-12-19T19:33:20.298Z,8.05
2022-12-19T19:35:23.671Z,7.93
2022-12-19T19:37:27.665Z,7.70
2022-12-19T19:39:32.809Z,8.52
2022-12-19T19:41:35.535Z,8.30
2022-12-19T19:43:37.925Z,11.23
2022-12-19T19:45:43.489Z,8.63
2022-12-19T19:47:48.821Z,6.82
2022-12-19T19:49:55.400Z,7.18
2022-12-19T19:52:02.451Z,7.85
2022-12-19T19:54:05.845Z,8.02
2022-12-19T19:56:08.772Z,7.57
2022-12-19T19:58:11.489Z,8.15
2022-12-19T20:00:15.543Z,8.00
2022-12-19T20:02:18.499Z,7.97
2022-12-19T20:04:21.095Z,7.32
2022-12-19T20:06:26.361Z,7.97
2022-12-19T20:08:36.867Z,8.45
2022-12-19T20:10:41.638Z,7.45
2022-12-19T20:12:44.127Z,7.75
2022-12-19T20:14:47.582Z,8.07
2022-12-19T20:16:50.767Z,7.40
2022-12-19T20:18:53.554Z,9.40
2022-12-19T20:20:56.116Z,7.68
2022-12-19T20:23:02.610Z,7.15
2022-12-19T20:25:05.731Z,7.30
2022-12-19T20:27:12.222Z,8.10
2022-12-19T20:29:14.803Z,8.00
2022-12-19T20:31:21.606Z,7.57
2022-12-19T20:33:24.272Z,7.57
2022-12-19T20:35:28.379Z,7.50
2022-12-19T20:37:38.546Z,9.48
2022-12-19T20:39:45.131Z,7.43
2022-12-19T20:41:48.364Z,7.10
2022-12-19T20:43:53.151Z,7.78
2022-12-19T20:46:02.928Z,6.78
2022-12-19T20:48:05.811Z,7.32
2022-12-19T20:50:15.063Z,7.05
2022-12-19T20:52:20.999Z,7.45
2022-12-19T20:54:23.913Z,7.07
2022-12-19T20:56:29.325Z,7.18
2022-12-19T20:58:34.937Z,7.07
2022-12-19T21:00:44.432Z,7.40
2022-12-19T21:03:26.425Z,7.15
2022-12-19T21:05:15.262Z,6.70
2022-12-19T21:07:18.746Z,7.13
2022-12-19T21:09:35.235Z,7.38
2022-12-19T21:11:40.388Z,6.95
2022-12-19T21:13:45.807Z,6.85
2022-12-19T21:15:52.994Z,6.90
2022-12-19T21:17:58.502Z,6.53
2022-12-19T21:20:05.663Z,6.95
2022-12-19T21:22:08.368Z,6.75
2022-12-19T21:24:11.192Z,8.75
2022-12-19T21:26:17.677Z,6.82
2022-12-19T21:28:23.730Z,6.57
2022-12-19T21:30:27.891Z,7.18
2022-12-19T21:34:37.423Z,8.48
2022-12-19T21:36:41.043Z,6.85
2022-12-19T21:38:52.625Z,6.65
2022-12-19T21:40:55.384Z,6.32
2022-12-19T21:42:59.164Z,6.65
2022-12-19T21:45:05.094Z,6.57
2022-12-19T21:47:16.724Z,6.40
2022-12-19T21:49:26.967Z,6.63
2022-12-19T21:51:31.304Z,6.78
2022-12-19T21:53:34.323Z,6.10
2022-12-19T21:55:36.760Z,6.57
2022-12-19T21:57:40.198Z,6.40
2022-12-19T21:59:43.768Z,6.17
2022-12-19T22:01:49.631Z,5.80
2022-12-19T22:03:52.899Z,6.70
2022-12-19T22:05:55.509Z,6.20
2022-12-19T22:07:58.422Z,5.95
2022-12-19T22:10:01.011Z,6.47
2022-12-19T22:12:05.740Z,5.90
2022-12-19T22:14:09.284Z,6.50
2022-12-19T22:16:24.549Z,6.53
2022-12-19T22:18:30.232Z,6.28
2022-12-19T22:20:32.922Z,5.78
2022-12-19T22:22:35.421Z,5.95
2022-12-19T22:24:37.988Z,6.32
2022-12-19T22:26:42.772Z,6.10
2022-12-19T22:28:47.997Z,5.88
2022-12-19T22:30:52.344Z,7.00
2022-12-19T22:34:59.861Z,6.60
2022-12-19T22:37:07.278Z,5.47
2022-12-19T22:39:11.984Z,5.78
2022-12-19T22:41:15.964Z,6.00
2022-12-19T22:43:18.547Z,5.63
2022-12-19T22:45:21.625Z,5.53
2022-12-19T22:47:24.144Z,5.68
2022-12-19T22:49:26.799Z,5.70
2022-12-19T22:51:33.365Z,6.00
2022-12-19T22:53:37.569Z,5.30
2022-12-19T22:55:40.227Z,6.32
2022-12-19T22:57:42.779Z,5.50
2022-12-19T22:59:45.261Z,5.80
2022-12-19T23:01:48.829Z,5.55
2022-12-19T23:04:02.839Z,5.55
2022-12-19T23:06:08.895Z,6.43
2022-12-19T23:08:21.121Z,5.70
2022-12-19T23:10:24.115Z,6.50
2022-12-19T23:12:26.985Z,5.43
2022-12-19T23:14:29.694Z,5.18
2022-12-19T23:16:32.723Z,7.75
2022-12-19T23:18:37.144Z,5.28
2022-12-19T23:20:42.446Z,5.07
2022-12-19T23:22:45.221Z,6.13
2022-12-19T23:24:50.587Z,5.85
2022-12-19T23:26:53.265Z,5.55
2022-12-19T23:28:58.662Z,6.60
2022-12-19T23:31:04.508Z,6.40
2022-12-19T23:33:07.004Z,6.90
2022-12-19T23:35:10.515Z,6.35
2022-12-19T23:37:13.234Z,5.80
2022-12-19T23:39:16.243Z,6.10
2022-12-19T23:41:22.530Z,6.15
2022-12-19T23:43:25.276Z,6.25
2022-12-19T23:45:28.111Z,6.55
2022-12-19T23:47:30.720Z,6.93
2022-12-19T23:49:33.666Z,6.78
2022-12-19T23:51:36.109Z,7.75
2022-12-19T23:53:40.904Z,7.82
2022-12-19T23:55:43.252Z,7.10
2022-12-19T23:57:48.453Z,8.07
2022-12-19T23:59:51.519Z,8.38
